Terminal Aerodrome Forecast
Issued by NWS

Home | Current Version | Previous Version | Text Only | Print | Product List | Glossary On
Versions: 1 2 3 4 5 6 7 8 9 10 11 12 13 14 15 16 17 18 19 20 21 22 23 24 25
000
FTUS41 KGYX 270902 AAC
TAFRKD
TAF AMD
KRKD 270902Z 2709/2806 01023G35KT 1/4SM +SN BLSN VV015
     FM271400 01032G45KT 1/4SM +SN BLSN VV002
     FM272200 01027G37KT 1SM -SN BLSN OVC003
      AMD LTD TO CLD VIS AND WIND=

USA.gov is the U.S. government's official web portal to all federal, state and local government web resources and services.